METAR Data
IDs: Format: Raw Decoded Include TAF

Data at: 1533 UTC 03 Dec 2021

UMKK 031500Z 23003MPS 9999 BKN017CB M00/M01 Q1001 R24/690295 NOSIG RMK QFE750/1000